createdAt,value
2023-05-13T00:00:01.974Z,20.6
2023-05-13T00:05:01.441Z,0.3
2023-05-13T00:10:00.500Z,10.9
2023-05-13T00:15:00.508Z,8.5
2023-05-13T00:20:00.493Z,19.6
2023-05-13T00:30:00.684Z,26.3
2023-05-13T00:35:00.606Z,36.4
2023-05-13T00:40:00.507Z,33.6
2023-05-13T00:45:00.495Z,28.8
2023-05-13T00:50:00.523Z,39.8
2023-05-13T00:55:00.476Z,31.3
2023-05-13T01:00:00.578Z,40.5
2023-05-13T01:05:00.578Z,37.2
2023-05-13T01:10:00.519Z,29.5
2023-05-13T01:15:00.697Z,29.4
2023-05-13T01:20:00.506Z,30.3
2023-05-13T01:25:00.514Z,38.7
2023-05-13T01:30:00.496Z,45.8
2023-05-13T01:35:00.493Z,47.6
2023-05-13T01:40:00.501Z,45.5
2023-05-13T01:45:00.495Z,43.0
2023-05-13T01:50:00.580Z,34.9
2023-05-13T01:55:00.513Z,36.5
2023-05-13T02:00:00.490Z,37.5
2023-05-13T02:05:00.496Z,28.5
2023-05-13T02:10:00.473Z,39.5
2023-05-13T02:15:00.833Z,32.5
2023-05-13T02:20:00.505Z,30.6
2023-05-13T02:25:00.503Z,36.9
2023-05-13T02:30:00.724Z,29.8
2023-05-13T02:35:00.466Z,33.5
2023-05-13T02:40:00.550Z,32.7
2023-05-13T02:45:00.504Z,38.8
2023-05-13T02:50:00.535Z,44.7
2023-05-13T02:55:00.764Z,41.8
2023-05-13T03:00:00.522Z,38.7
2023-05-13T03:05:00.511Z,32.1
2023-05-13T03:10:00.532Z,33.3
2023-05-13T03:15:00.511Z,37.4
2023-05-13T03:20:00.585Z,38.8
2023-05-13T03:25:00.505Z,35.6
2023-05-13T03:30:00.634Z,27.6
2023-05-13T03:35:00.558Z,36.1
2023-05-13T03:40:00.511Z,29.1
2023-05-13T03:45:00.492Z,29.7
2023-05-13T03:50:00.496Z,36.0
2023-05-13T03:55:00.543Z,33.9
2023-05-13T04:00:00.497Z,34.6
2023-05-13T04:05:00.599Z,35.6
2023-05-13T04:10:00.625Z,30.0
2023-05-13T04:15:00.497Z,25.4
2023-05-13T04:20:00.586Z,35.2
2023-05-13T04:25:00.522Z,43.9
2023-05-13T04:30:00.583Z,30.9
2023-05-13T04:35:00.498Z,42.9
2023-05-13T04:40:00.505Z,39.0
2023-05-13T04:45:00.499Z,39.1
2023-05-13T04:50:01.703Z,49.3
2023-05-13T04:55:00.511Z,37.6
2023-05-13T05:00:00.500Z,30.2
2023-05-13T05:05:00.505Z,47.3
2023-05-13T05:10:00.579Z,51.1
2023-05-13T05:15:00.532Z,56.6
2023-05-13T05:20:00.590Z,51.0
2023-05-13T05:25:00.469Z,61.5
2023-05-13T05:30:03.304Z,63.3
2023-05-13T05:35:00.512Z,58.6
2023-05-13T05:40:00.513Z,59.8
2023-05-13T05:45:00.539Z,65.4
2023-05-13T05:50:00.564Z,66.1
2023-05-13T05:55:00.512Z,64.1
2023-05-13T06:00:00.613Z,63.5
2023-05-13T06:05:00.532Z,72.4
2023-05-13T06:10:00.535Z,80.4
2023-05-13T06:15:00.588Z,69.1
2023-05-13T06:20:00.608Z,79.9
2023-05-13T06:25:00.610Z,118.8
2023-05-13T06:30:00.581Z,98.7
2023-05-13T06:35:00.545Z,95.6
2023-05-13T06:40:00.524Z,81.2
2023-05-13T06:45:00.573Z,97.4
2023-05-13T06:50:00.511Z,87.8
2023-05-13T06:55:00.525Z,115.4
2023-05-13T07:00:00.594Z,70.3
2023-05-13T07:05:00.478Z,76.5
2023-05-13T07:10:00.523Z,131.5
2023-05-13T07:15:00.630Z,85.9
2023-05-13T07:20:00.517Z,100.7
2023-05-13T07:25:00.529Z,91.5
2023-05-13T07:30:00.731Z,83.1
2023-05-13T07:35:00.512Z,77.1
2023-05-13T07:40:00.512Z,62.7
2023-05-13T07:45:00.619Z,112.0
2023-05-13T07:50:00.531Z,77.2
2023-05-13T07:55:00.512Z,78.9
2023-05-13T08:00:00.586Z,79.6
2023-05-13T08:05:00.659Z,64.8
2023-05-13T08:10:00.797Z,59.2
2023-05-13T08:15:00.613Z,106.2
2023-05-13T08:20:00.618Z,58.6
2023-05-13T08:25:00.518Z,59.6
2023-05-13T08:30:00.574Z,69.4
2023-05-13T08:35:00.521Z,96.4
2023-05-13T08:40:00.553Z,94.3
2023-05-13T08:45:00.595Z,134.1
2023-05-13T08:50:00.515Z,98.6
2023-05-13T08:55:00.524Z,73.5
2023-05-13T09:00:00.527Z,111.2
2023-05-13T09:05:00.744Z,108.2
2023-05-13T09:10:00.523Z,93.8
2023-05-13T09:15:00.539Z,110.1
2023-05-13T09:20:01.007Z,93.6
2023-05-13T09:25:00.532Z,91.5
2023-05-13T09:30:00.584Z,107.5
2023-05-13T09:35:00.513Z,137.2
2023-05-13T09:40:00.527Z,132.2
2023-05-13T09:45:00.521Z,160.0
2023-05-13T09:50:00.539Z,112.3
2023-05-13T09:55:00.539Z,117.9
2023-05-13T10:00:00.556Z,156.9
2023-05-13T10:05:00.511Z,130.9
2023-05-13T10:10:00.517Z,163.1
2023-05-13T10:15:00.544Z,151.5
2023-05-13T10:20:00.528Z,167.7
2023-05-13T10:25:00.508Z,83.0
2023-05-13T10:30:04.302Z,109.0
2023-05-13T10:35:00.529Z,95.9
2023-05-13T10:40:00.658Z,117.3
2023-05-13T10:45:00.537Z,98.7
2023-05-13T10:50:00.612Z,97.1
2023-05-13T10:55:00.584Z,135.1
2023-05-13T11:00:00.514Z,164.7
2023-05-13T11:05:00.609Z,120.4
2023-05-13T11:10:00.513Z,130.2
2023-05-13T11:15:00.592Z,103.7
2023-05-13T11:20:00.547Z,75.2
2023-05-13T11:25:00.577Z,124.3
2023-05-13T11:30:00.491Z,123.5
2023-05-13T11:35:00.507Z,109.1
2023-05-13T11:40:00.719Z,68.7
2023-05-13T11:45:00.628Z,71.1
2023-05-13T11:50:00.400Z,66.6
2023-05-13T11:55:00.557Z,133.0
2023-05-13T12:00:00.532Z,145.2
2023-05-13T12:05:00.683Z,148.3
2023-05-13T12:10:00.521Z,83.9
2023-05-13T12:15:00.593Z,134.3
2023-05-13T12:20:00.517Z,101.2
2023-05-13T12:25:00.550Z,135.6
2023-05-13T12:30:00.533Z,80.4
2023-05-13T12:35:00.563Z,123.0
2023-05-13T12:40:00.508Z,152.1
2023-05-13T12:45:00.635Z,127.7
2023-05-13T12:50:00.545Z,74.4
2023-05-13T12:55:00.522Z,89.6
2023-05-13T13:00:00.708Z,82.9
2023-05-13T13:05:00.516Z,135.6
2023-05-13T13:10:00.619Z,139.1
2023-05-13T13:15:00.552Z,121.0
2023-05-13T13:20:00.536Z,66.0
2023-05-13T13:25:00.576Z,104.9
2023-05-13T13:30:00.436Z,93.0
2023-05-13T13:35:00.511Z,152.7
2023-05-13T13:40:00.513Z,67.9
2023-05-13T13:45:00.561Z,64.4
2023-05-13T13:50:00.557Z,71.1
2023-05-13T13:55:00.654Z,71.5
2023-05-13T14:00:00.592Z,140.0
2023-05-13T14:05:00.535Z,90.7
2023-05-13T14:10:02.014Z,82.0
2023-05-13T14:15:00.522Z,149.4
2023-05-13T14:20:00.544Z,102.6
2023-05-13T14:25:00.525Z,93.5
2023-05-13T14:30:00.696Z,76.2
2023-05-13T14:35:00.812Z,70.9
2023-05-13T14:40:00.585Z,65.4
2023-05-13T14:45:00.583Z,79.6
2023-05-13T14:50:00.605Z,89.8
2023-05-13T14:55:00.518Z,125.4
2023-05-13T15:00:00.602Z,130.3
2023-05-13T15:05:00.516Z,123.9
2023-05-13T15:10:00.605Z,95.2
2023-05-13T15:15:00.567Z,126.9
2023-05-13T15:20:00.585Z,65.8
2023-05-13T15:25:00.510Z,63.4
2023-05-13T15:30:00.515Z,91.4
2023-05-13T15:35:00.624Z,85.0
2023-05-13T15:40:00.733Z,68.5
2023-05-13T15:45:00.629Z,72.0
2023-05-13T15:50:01.107Z,72.3
2023-05-13T15:55:00.659Z,79.4
2023-05-13T16:00:01.005Z,68.6
2023-05-13T16:05:00.523Z,74.4
2023-05-13T16:10:00.628Z,103.7
2023-05-13T16:15:00.532Z,144.2
2023-05-13T16:20:00.625Z,79.6
2023-05-13T16:25:00.569Z,63.9
2023-05-13T16:30:00.756Z,68.8
2023-05-13T16:35:00.505Z,87.7
2023-05-13T16:40:00.577Z,102.7
2023-05-13T16:45:00.547Z,109.3
2023-05-13T16:50:00.542Z,98.2
2023-05-13T16:55:00.540Z,137.6
2023-05-13T17:00:00.520Z,160.5
2023-05-13T17:05:00.528Z,163.5
2023-05-13T17:10:00.507Z,167.0
2023-05-13T17:15:00.566Z,162.9
2023-05-13T17:20:00.702Z,151.9
2023-05-13T17:25:00.739Z,164.2
2023-05-13T17:30:00.699Z,156.2
2023-05-13T17:35:00.611Z,153.9
2023-05-13T17:40:00.533Z,149.9
2023-05-13T17:45:00.732Z,159.6
2023-05-13T17:50:00.547Z,171.8
2023-05-13T17:55:00.646Z,142.4
2023-05-13T18:00:00.631Z,158.6
2023-05-13T18:05:00.508Z,154.6
2023-05-13T18:10:00.600Z,141.4
2023-05-13T18:15:00.666Z,160.3
2023-05-13T18:20:00.545Z,144.1
2023-05-13T18:25:00.744Z,73.2
2023-05-13T18:30:00.504Z,76.2
2023-05-13T18:35:00.573Z,130.1
2023-05-13T18:40:00.591Z,132.8
2023-05-13T18:45:00.649Z,115.2
2023-05-13T18:50:00.512Z,149.0
2023-05-13T18:55:00.513Z,147.2
2023-05-13T19:00:00.656Z,152.5
2023-05-13T19:05:00.584Z,158.6
2023-05-13T19:10:00.617Z,188.2
2023-05-13T19:15:00.784Z,169.1
2023-05-13T19:20:00.895Z,179.0
2023-05-13T19:25:00.502Z,160.0
2023-05-13T19:30:00.570Z,158.7
2023-05-13T19:35:00.573Z,157.5
2023-05-13T19:40:00.551Z,157.5
2023-05-13T19:45:00.519Z,157.5
2023-05-13T19:50:00.665Z,157.5
2023-05-13T19:55:00.716Z,157.5
2023-05-13T20:00:00.642Z,157.5
2023-05-13T20:05:00.642Z,199.6
2023-05-13T20:10:00.480Z,202.5
2023-05-13T20:15:00.741Z,202.5
2023-05-13T20:20:00.749Z,175.7
2023-05-13T20:25:00.484Z,67.7
2023-05-13T20:30:00.748Z,45.5
2023-05-13T20:35:00.570Z,45.0
2023-05-13T20:40:00.440Z,43.6
2023-05-13T20:45:00.657Z,22.6
2023-05-13T20:50:00.528Z,41.5
2023-05-13T20:55:00.500Z,46.3
2023-05-13T21:00:00.661Z,27.5
2023-05-13T21:05:00.556Z,20.7
2023-05-13T21:10:00.486Z,21.9
2023-05-13T21:15:00.566Z,29.4
2023-05-13T21:20:00.499Z,28.7
2023-05-13T21:25:00.533Z,24.4
2023-05-13T21:30:00.515Z,52.1
2023-05-13T21:35:00.627Z,62.6
2023-05-13T21:40:00.553Z,60.2
2023-05-13T21:45:00.500Z,45.2
2023-05-13T21:50:00.531Z,45.0
2023-05-13T21:55:00.496Z,29.7
2023-05-13T22:00:00.629Z,63.5
2023-05-13T22:05:00.466Z,45.7
2023-05-13T22:10:00.581Z,41.4
2023-05-13T22:15:00.570Z,32.3
2023-05-13T22:20:00.479Z,30.6
2023-05-13T22:25:00.502Z,33.6
2023-05-13T22:30:00.620Z,31.4
2023-05-13T22:35:00.726Z,30.5
2023-05-13T22:40:00.536Z,36.6
2023-05-13T22:45:00.503Z,42.9
2023-05-13T22:50:00.507Z,25.4
2023-05-13T22:55:00.509Z,27.2
2023-05-13T23:00:00.505Z,26.0
2023-05-13T23:05:00.527Z,28.0
2023-05-13T23:10:00.948Z,34.3
2023-05-13T23:15:00.637Z,40.6
2023-05-13T23:20:00.468Z,21.7
2023-05-13T23:25:00.495Z,35.6
2023-05-13T23:30:00.513Z,44.0
2023-05-13T23:35:00.533Z,42.3
2023-05-13T23:40:00.483Z,44.5
2023-05-13T23:45:00.468Z,43.4
2023-05-13T23:50:00.476Z,32.0
2023-05-13T23:55:00.501Z,24.9
